F/V Kan An Ael — FHIZ — position and weather

sailwx.info

Track history (hours):
 
Tides and Currents Weather Stations Pressure Air Temp Water Temp Dewpoint Dewpoint Depression Visibility Wind Speed Wind Dir Waves Ship Positions

F/V Kan An Ael

Last reported at 2017-Sep-21 10:43 UTC. Time now 2017-Sep-23 02:23 UTC.
Position N 47°49' W 004°23'.

Length 16 m.

Type: Fishing. MMSI: 228109000.

Date/timePositionNaut miles runAvg speedWind from/ knotsBaromVisibWave heightAir tempDewpointWater temp
2017-Sep-21 10:43N 47°49' W 004°23'8 1.9
2017-Sep-21 06:25N 47°53' W 004°34'2 3.9
2017-Sep-21 05:58N 47°54' W 004°36'2 3.4
2017-Sep-21 05:23N 47°55' W 004°38'1 3.3
2017-Sep-21 04:59N 47°57' W 004°38'1 2.4
2017-Sep-21 04:29N 47°57' W 004°37'1 2.1
2017-Sep-21 04:00N 47°57' W 004°36'1 3.0
2017-Sep-21 03:30N 47°55' W 004°37'1 2.5
2017-Sep-21 03:00N 47°56' W 004°39'1 2.7
2017-Sep-21 02:30N 47°57' W 004°39'3 6.2
2017-Sep-21 02:00N 47°60' W 004°42'3 6.2
2017-Sep-21 01:31N 48°02' W 004°45'2 3.2
2017-Sep-21 01:00N 48°03' W 004°46'3 5.5
2017-Sep-21 00:31N 48°06' W 004°45'2 4.0
2017-Sep-21 00:00N 48°07' W 004°43'1 2.4
2017-Sep-20 23:30N 48°08' W 004°41'1 1.6
2017-Sep-20 23:00N 48°08' W 004°42'0 1.0
2017-Sep-20 22:30N 48°07' W 004°43'1 2.7
2017-Sep-20 22:00N 48°08' W 004°41'1 2.9
2017-Sep-20 21:30N 48°08' W 004°43'1 1.4
2017-Sep-20 21:00N 48°08' W 004°42'1 1.4
2017-Sep-20 20:31N 48°07' W 004°41'1 2.8
2017-Sep-20 20:00N 48°07' W 004°43'3 5.6
2017-Sep-20 19:30N 48°09' W 004°47'4 8.3
2017-Sep-20 19:00N 48°11' W 004°52'3 5.3
2017-Sep-20 18:31N 48°12' W 004°56'1 2.6
2017-Sep-20 18:01N 48°12' W 004°58'2 3.2
2017-Sep-20 17:30N 48°12' W 004°60'2 3.4
2017-Sep-20 17:00N 48°12' W 005°02'2 3.1
2017-Sep-20 16:30N 48°13' W 005°04'1 2.7
2017-Sep-20 16:00N 48°14' W 005°06'1 2.3
2017-Sep-20 15:30N 48°15' W 005°05'1 2.0
2017-Sep-20 15:00N 48°16' W 005°05'1 1.2
2017-Sep-20 14:00N 48°17' W 005°04'2 3.2
2017-Sep-20 13:31N 48°16' W 005°02'2 3.4
2017-Sep-20 13:00N 48°15' W 005°03'1 2.4
2017-Sep-20 12:30N 48°15' W 005°05'1 2.1
2017-Sep-20 12:00N 48°16' W 005°05'1 2.1
2017-Sep-20 11:30N 48°17' W 005°05'1 2.5
2017-Sep-20 11:00N 48°18' W 005°04'1 2.8
2017-Sep-20 10:30N 48°16' W 005°03'2 3.1
2017-Sep-20 10:00N 48°15' W 005°04'1 3.0
2017-Sep-20 09:30N 48°13' W 005°05'1 2.0
2017-Sep-20 09:00N 48°13' W 005°04'1 2.5
2017-Sep-20 08:30N 48°11' W 005°03'1 2.5
2017-Sep-20 08:01N 48°10' W 005°02'1 3.0
2017-Sep-20 07:31N 48°12' W 005°01'1 3.0
2017-Sep-20 07:00N 48°11' W 004°59'2 3.3
2017-Sep-20 06:30N 48°12' W 004°56'2 3.4
2017-Sep-20 06:01N 48°13' W 004°55'2 3.3
2017-Sep-20 05:31N 48°14' W 004°53'2 4.8
2017-Sep-20 05:01N 48°13' W 004°50'4 8.1
2017-Sep-20 04:30N 48°10' W 004°45'3 6.7
2017-Sep-20 04:01N 48°08' W 004°42'1 1.1
2017-Sep-20 03:30N 48°07' W 004°42'1 1.9
2017-Sep-20 03:00N 48°07' W 004°43'1 2.6
2017-Sep-20 02:31N 48°07' W 004°41'1 1.6
2017-Sep-20 02:00N 48°08' W 004°42'1 1.6
2017-Sep-20 01:31N 48°07' W 004°43'1 2.7
2017-Sep-20 01:00N 48°07' W 004°41'1 2.5
2017-Sep-20 00:30N 48°08' W 004°43'1 1.1
2017-Sep-20 00:01N 48°07' W 004°43'1 2.4
2017-Sep-19 23:31N 48°08' W 004°42'0 0.7
2017-Sep-19 23:00N 48°07' W 004°42'1 2.5
2017-Sep-19 22:30N 48°07' W 004°44'2 3.0
2017-Sep-19 22:00N 48°07' W 004°41'1 1.8
2017-Sep-19 21:30N 48°08' W 004°42'1 1.5
2017-Sep-19 21:01N 48°07' W 004°43'1 2.8
2017-Sep-19 20:30N 48°08' W 004°41'1 2.5
2017-Sep-19 20:00N 48°07' W 004°43'2 4.8
2017-Sep-19 19:30N 48°09' W 004°46'4 8.4
2017-Sep-19 19:00N 48°11' W 004°51'3 6.1
2017-Sep-19 18:30N 48°13' W 004°55'1 2.5
2017-Sep-19 18:00N 48°12' W 004°56'1 2.7
2017-Sep-19 17:31N 48°12' W 004°58'1 2.4
2017-Sep-19 17:00N 48°13' W 004°58'1 2.0
2017-Sep-19 16:30N 48°12' W 004°57'1 2.6
2017-Sep-19 16:01N 48°12' W 004°58'2 3.1
2017-Sep-19 15:30N 48°11' W 005°01'1 2.8
2017-Sep-19 15:01N 48°10' W 005°02'1 2.7
2017-Sep-19 14:30N 48°12' W 005°03'1 1.9
2017-Sep-19 14:00N 48°12' W 005°04'1 2.3
2017-Sep-19 13:30N 48°13' W 005°05'1 2.1
2017-Sep-19 13:00N 48°14' W 005°06'1 2.1
2017-Sep-19 12:30N 48°15' W 005°05'1 2.2
2017-Sep-19 12:00N 48°16' W 005°05'1 2.2
2017-Sep-19 11:30N 48°17' W 005°05'1 2.5
2017-Sep-19 11:00N 48°17' W 005°03'2 3.5
2017-Sep-19 10:30N 48°16' W 005°03'1 3.0
2017-Sep-19 10:00N 48°14' W 005°05'1 2.0
2017-Sep-19 09:30N 48°13' W 005°05'1 2.8
2017-Sep-19 09:01N 48°12' W 005°04'1 2.8
2017-Sep-19 08:30N 48°11' W 005°03'1 2.7
2017-Sep-19 08:01N 48°10' W 005°01'2 3.0
2017-Sep-19 07:30N 48°12' W 005°00'2 3.1
2017-Sep-19 07:00N 48°11' W 004°58'2 3.5
2017-Sep-19 06:31N 48°12' W 004°55'2 3.7
2017-Sep-19 06:00N 48°14' W 004°54'2 3.1
2017-Sep-19 05:30N 48°14' W 004°52'3 6.9
2017-Sep-19 05:00N 48°12' W 004°48'4 7.8
2017-Sep-19 04:31N 48°09' W 004°44'2 3.4
2017-Sep-19 04:00N 48°08' W 004°42'1 1.6
2017-Sep-19 03:31N 48°07' W 004°43'2 3.3
2017-Sep-19 03:00N 48°07' W 004°41'1 2.8
2017-Sep-19 02:30N 48°08' W 004°43'1 1.3
2017-Sep-19 02:01N 48°07' W 004°42'1 2.3
2017-Sep-19 01:30N 48°08' W 004°41'2 3.3
2017-Sep-19 01:00N 48°08' W 004°43'1 1.4
2017-Sep-19 00:30N 48°07' W 004°43'1 1.2
2017-Sep-19 00:01N 48°08' W 004°43'1 1.3
2017-Sep-18 23:30N 48°07' W 004°42'1 2.3
2017-Sep-18 23:01N 48°08' W 004°41'1 2.7
2017-Sep-18 22:30N 48°08' W 004°43'1 1.3
2017-Sep-18 22:00N 48°07' W 004°42'1 2.1
2017-Sep-18 21:30N 48°08' W 004°41'2 3.3
2017-Sep-18 21:00N 48°08' W 004°44'1 2.2
2017-Sep-18 20:30N 48°08' W 004°42'1 1.1
2017-Sep-18 20:00N 48°07' W 004°42'2 3.2
2017-Sep-18 19:31N 48°08' W 004°44'4 7.7
2017-Sep-18 19:01N 48°10' W 004°48'4 8.4
2017-Sep-18 18:31N 48°13' W 004°53'1 2.3
2017-Sep-18 18:00N 48°13' W 004°54'1 2.7
2017-Sep-18 17:30N 48°12' W 004°56'1 2.9
2017-Sep-18 17:00N 48°12' W 004°58'2 3.2
2017-Sep-18 16:31N 48°13' W 004°58'2 3.6
2017-Sep-18 16:00N 48°15' W 004°58'1 2.8
2017-Sep-18 15:30N 48°16' W 004°56'1 2.9
2017-Sep-18 15:00N 48°14' W 004°57'1 2.9
2017-Sep-18 14:31N 48°13' W 004°57'2 3.2
2017-Sep-18 14:00N 48°12' W 004°59'2 3.6
2017-Sep-18 13:30N 48°11' W 005°01'3 6.3
2017-Sep-18 13:00N 48°10' W 005°06'0 0.5
2017-Sep-18 12:30N 48°10' W 005°05'1 2.5
2017-Sep-18 12:00N 48°10' W 005°03'2 3.1
2017-Sep-18 11:30N 48°09' W 005°03'1 0.8
2017-Sep-18 10:24N 48°08' W 005°04'1 2.5
2017-Sep-18 10:00N 48°09' W 005°03'2 4.4
2017-Sep-18 09:30N 48°08' W 004°60'4 8.5
2017-Sep-18 09:00N 48°06' W 004°54'4 8.7
2017-Sep-18 08:30N 48°04' W 004°49'5 9.4
2017-Sep-18 08:00N 48°00' W 004°44'5 9.0
2017-Sep-18 07:26N 47°57' W 004°38'4 8.5
2017-Sep-18 07:00N 47°55' W 004°34'  
2017-Sep-15 07:43N 47°49' W 004°23'0 0.0
2017-Sep-14 13:58N 47°49' W 004°23'5 1.6
2017-Sep-14 10:58N 47°50' W 004°30'7 7.0
2017-Sep-14 09:58N 47°53' W 004°39'2 1.6
2017-Sep-14 08:58N 47°53' W 004°37'3 2.6
2017-Sep-14 07:58N 47°53' W 004°41'1 2.7
2017-Sep-14 07:30N 47°54' W 004°41'1 2.7
2017-Sep-14 06:58N 47°55' W 004°40'1 2.6
2017-Sep-14 06:24N 47°56' W 004°39'1 2.6
2017-Sep-14 05:59N 47°57' W 004°38'1 2.6
2017-Sep-14 05:30N 47°57' W 004°36'2 3.0
2017-Sep-14 05:00N 47°56' W 004°37'2 3.1
2017-Sep-14 04:30N 47°54' W 004°38'2 2.3
2017-Sep-14 03:51N 47°54' W 004°40'1 2.4
2017-Sep-14 03:24N 47°55' W 004°39'1 2.6
2017-Sep-14 03:00N 47°56' W 004°38'1 2.1
2017-Sep-14 02:28N 47°57' W 004°39'1 2.8
2017-Sep-14 01:58N 47°55' W 004°39'1 2.3
2017-Sep-14 01:30N 47°56' W 004°37'1 2.7
2017-Sep-14 01:00N 47°57' W 004°36'1 2.6
2017-Sep-14 00:30N 47°57' W 004°38'1 2.7
2017-Sep-14 00:00N 47°56' W 004°39'1 2.2
2017-Sep-13 23:30N 47°55' W 004°38'1 2.7
2017-Sep-13 23:00N 47°56' W 004°37'2 4.3
2017-Sep-13 22:30N 47°58' W 004°39'5 9.9
2017-Sep-13 22:00N 48°01' W 004°45'4 7.8
2017-Sep-13 21:30N 48°05' W 004°44'2 4.6
2017-Sep-13 21:00N 48°07' W 004°42'1 2.8
2017-Sep-13 20:30N 48°08' W 004°43'1 1.0
2017-Sep-13 20:00N 48°07' W 004°43'1 2.5
2017-Sep-13 19:30N 48°08' W 004°41'1 2.0
2017-Sep-13 19:00N 48°08' W 004°42'1 1.6
2017-Sep-13 18:31N 48°07' W 004°43'1 2.7
2017-Sep-13 18:00N 48°07' W 004°41'1 1.7
2017-Sep-13 17:30N 48°08' W 004°42'2 3.3
2017-Sep-13 17:00N 48°07' W 004°44'1 2.6
2017-Sep-13 16:30N 48°07' W 004°42'1 1.3
2017-Sep-13 16:00N 48°07' W 004°41'1 1.9
2017-Sep-13 15:30N 48°08' W 004°42'1 1.4
2017-Sep-13 15:00N 48°07' W 004°42'1 2.6
2017-Sep-13 14:30N 48°07' W 004°40'1 2.9
2017-Sep-13 14:01N 48°08' W 004°42'1 1.2
2017-Sep-13 13:30N 48°07' W 004°43'1 2.8
2017-Sep-13 13:00N 48°08' W 004°41'1 2.7
2017-Sep-13 12:30N 48°08' W 004°43'1 1.9
2017-Sep-13 12:00N 48°07' W 004°44'2 3.5
2017-Sep-13 11:30N 48°07' W 004°41'1 2.3
2017-Sep-13 11:00N 48°08' W 004°42'1 1.8
2017-Sep-13 10:30N 48°07' W 004°42'1 2.5
2017-Sep-13 10:00N 48°07' W 004°40'1 2.7
2017-Sep-13 09:30N 48°08' W 004°42'1 2.8
2017-Sep-13 09:00N 48°08' W 004°44'1 2.8
2017-Sep-13 08:30N 48°07' W 004°42'1 1.7
2017-Sep-13 08:00N 48°08' W 004°41'2 3.1
2017-Sep-13 07:30N 48°08' W 004°44'1 1.9
2017-Sep-13 07:01N 48°07' W 004°43'1 1.2
2017-Sep-13 06:30N 48°08' W 004°42'1 1.4
2017-Sep-13 06:01N 48°07' W 004°43'1 2.4
2017-Sep-13 05:30N 48°08' W 004°41'1 1.1
2017-Sep-13 05:00N 48°08' W 004°42'1 1.5
2017-Sep-13 04:30N 48°07' W 004°43'1 2.3
2017-Sep-13 04:00N 48°07' W 004°41'1 1.5
2017-Sep-13 03:30N 48°08' W 004°42'1 2.6
2017-Sep-13 03:00N 48°07' W 004°44'1 2.7
2017-Sep-13 02:30N 48°07' W 004°42'0 0.1
2017-Sep-13 02:00N 48°07' W 004°42'1 2.5
2017-Sep-13 01:30N 48°08' W 004°44'1 2.8
2017-Sep-13 01:00N 48°07' W 004°42'1 1.3
2017-Sep-13 00:30N 48°08' W 004°42'1 2.5
2017-Sep-13 00:00N 48°07' W 004°44'1 2.9
2017-Sep-12 23:30N 48°07' W 004°41'1 1.6
2017-Sep-12 23:00N 48°08' W 004°42'1 2.6
2017-Sep-12 22:30N 48°08' W 004°44'1 2.8
2017-Sep-12 22:00N 48°07' W 004°42'1 1.9
2017-Sep-12 21:30N 48°07' W 004°41'1 2.5
2017-Sep-12 21:00N 48°08' W 004°41'1 2.8
2017-Sep-12 20:31N 48°08' W 004°43'1 2.0
2017-Sep-12 20:00N 48°08' W 004°42'1 1.0
2017-Sep-12 19:30N 48°07' W 004°42'1 2.9
2017-Sep-12 19:00N 48°08' W 004°44'1 2.4
2017-Sep-12 18:30N 48°07' W 004°42'1 2.6
2017-Sep-12 18:00N 48°07' W 004°40'2 4.2
2017-Sep-12 17:30N 48°06' W 004°42'4 8.4
2017-Sep-12 17:01N 48°02' W 004°46'4 8.2
2017-Sep-12 16:30N 48°00' W 004°51'4 7.7
2017-Sep-12 16:00N 48°00' W 004°57'6 7.3
2017-Sep-12 15:13N 47°59' W 005°06'1 2.9
2017-Sep-12 14:58N 47°59' W 005°06'0 0.3
2017-Sep-12 14:30N 47°59' W 005°06'1 2.4
2017-Sep-12 14:00N 47°60' W 005°05'1 2.6
2017-Sep-12 13:30N 47°59' W 005°06'1 2.7
2017-Sep-12 13:00N 47°58' W 005°08'1 2.6
2017-Sep-12 12:30N 47°59' W 005°07'2 3.2
2017-Sep-12 12:00N 48°00' W 005°05'1 1.6
2017-Sep-12 11:30N 47°60' W 005°05'1 2.0
2017-Sep-12 10:59N 47°59' W 005°06'1 1.6
2017-Sep-12 10:17N 47°59' W 005°08'4 4.4
2017-Sep-12 09:19N 47°57' W 005°02'2 7.2
2017-Sep-12 09:00N 47°56' W 004°59'4 7.2
2017-Sep-12 08:30N 47°55' W 004°54'4 7.3
2017-Sep-12 08:00N 47°54' W 004°49'4 7.5
2017-Sep-12 07:30N 47°53' W 004°43'  
Track history (hours):
 
Tides and Currents Weather Stations Pressure Air Temp Water Temp Dewpoint Dewpoint Depression Visibility Wind Speed Wind Dir Waves Ship Positions

F/V Kan An Ael

Last reported at 2017-Sep-21 10:43 UTC. Time now 2017-Sep-23 02:23 UTC.
Position N 47°49' W 004°23'.

Length 16 m.

Type: Fishing. MMSI: 228109000.

Date/timePositionNaut miles runAvg speedWind from/ knotsBaromVisibWave heightAir tempDewpointWater temp
2017-Sep-21 10:43N 47°49' W 004°23'8 1.9
2017-Sep-21 06:25N 47°53' W 004°34'2 3.9
2017-Sep-21 05:58N 47°54' W 004°36'2 3.4
2017-Sep-21 05:23N 47°55' W 004°38'1 3.3
2017-Sep-21 04:59N 47°57' W 004°38'1 2.4
2017-Sep-21 04:29N 47°57' W 004°37'1 2.1
2017-Sep-21 04:00N 47°57' W 004°36'1 3.0
2017-Sep-21 03:30N 47°55' W 004°37'1 2.5
2017-Sep-21 03:00N 47°56' W 004°39'1 2.7
2017-Sep-21 02:30N 47°57' W 004°39'3 6.2
2017-Sep-21 02:00N 47°60' W 004°42'3 6.2
2017-Sep-21 01:31N 48°02' W 004°45'2 3.2
2017-Sep-21 01:00N 48°03' W 004°46'3 5.5
2017-Sep-21 00:31N 48°06' W 004°45'2 4.0
2017-Sep-21 00:00N 48°07' W 004°43'1 2.4
2017-Sep-20 23:30N 48°08' W 004°41'1 1.6
2017-Sep-20 23:00N 48°08' W 004°42'0 1.0
2017-Sep-20 22:30N 48°07' W 004°43'1 2.7
2017-Sep-20 22:00N 48°08' W 004°41'1 2.9
2017-Sep-20 21:30N 48°08' W 004°43'1 1.4
2017-Sep-20 21:00N 48°08' W 004°42'1 1.4
2017-Sep-20 20:31N 48°07' W 004°41'1 2.8
2017-Sep-20 20:00N 48°07' W 004°43'3 5.6
2017-Sep-20 19:30N 48°09' W 004°47'4 8.3
2017-Sep-20 19:00N 48°11' W 004°52'3 5.3
2017-Sep-20 18:31N 48°12' W 004°56'1 2.6
2017-Sep-20 18:01N 48°12' W 004°58'2 3.2
2017-Sep-20 17:30N 48°12' W 004°60'2 3.4
2017-Sep-20 17:00N 48°12' W 005°02'2 3.1
2017-Sep-20 16:30N 48°13' W 005°04'1 2.7
2017-Sep-20 16:00N 48°14' W 005°06'1 2.3
2017-Sep-20 15:30N 48°15' W 005°05'1 2.0
2017-Sep-20 15:00N 48°16' W 005°05'1 1.2
2017-Sep-20 14:00N 48°17' W 005°04'2 3.2
2017-Sep-20 13:31N 48°16' W 005°02'2 3.4
2017-Sep-20 13:00N 48°15' W 005°03'1 2.4
2017-Sep-20 12:30N 48°15' W 005°05'1 2.1
2017-Sep-20 12:00N 48°16' W 005°05'1 2.1
2017-Sep-20 11:30N 48°17' W 005°05'1 2.5
2017-Sep-20 11:00N 48°18' W 005°04'1 2.8
2017-Sep-20 10:30N 48°16' W 005°03'2 3.1
2017-Sep-20 10:00N 48°15' W 005°04'1 3.0
2017-Sep-20 09:30N 48°13' W 005°05'1 2.0
2017-Sep-20 09:00N 48°13' W 005°04'1 2.5
2017-Sep-20 08:30N 48°11' W 005°03'1 2.5
2017-Sep-20 08:01N 48°10' W 005°02'1 3.0
2017-Sep-20 07:31N 48°12' W 005°01'1 3.0
2017-Sep-20 07:00N 48°11' W 004°59'2 3.3
2017-Sep-20 06:30N 48°12' W 004°56'2 3.4
2017-Sep-20 06:01N 48°13' W 004°55'2 3.3
2017-Sep-20 05:31N 48°14' W 004°53'2 4.8
2017-Sep-20 05:01N 48°13' W 004°50'4 8.1
2017-Sep-20 04:30N 48°10' W 004°45'3 6.7
2017-Sep-20 04:01N 48°08' W 004°42'1 1.1
2017-Sep-20 03:30N 48°07' W 004°42'1 1.9
2017-Sep-20 03:00N 48°07' W 004°43'1 2.6
2017-Sep-20 02:31N 48°07' W 004°41'1 1.6
2017-Sep-20 02:00N 48°08' W 004°42'1 1.6
2017-Sep-20 01:31N 48°07' W 004°43'1 2.7
2017-Sep-20 01:00N 48°07' W 004°41'1 2.5
2017-Sep-20 00:30N 48°08' W 004°43'1 1.1
2017-Sep-20 00:01N 48°07' W 004°43'1 2.4
2017-Sep-19 23:31N 48°08' W 004°42'0 0.7
2017-Sep-19 23:00N 48°07' W 004°42'1 2.5
2017-Sep-19 22:30N 48°07' W 004°44'2 3.0
2017-Sep-19 22:00N 48°07' W 004°41'1 1.8
2017-Sep-19 21:30N 48°08' W 004°42'1 1.5
2017-Sep-19 21:01N 48°07' W 004°43'1 2.8
2017-Sep-19 20:30N 48°08' W 004°41'1 2.5
2017-Sep-19 20:00N 48°07' W 004°43'2 4.8
2017-Sep-19 19:30N 48°09' W 004°46'4 8.4
2017-Sep-19 19:00N 48°11' W 004°51'3 6.1
2017-Sep-19 18:30N 48°13' W 004°55'1 2.5
2017-Sep-19 18:00N 48°12' W 004°56'1 2.7
2017-Sep-19 17:31N 48°12' W 004°58'1 2.4
2017-Sep-19 17:00N 48°13' W 004°58'1 2.0
2017-Sep-19 16:30N 48°12' W 004°57'1 2.6
2017-Sep-19 16:01N 48°12' W 004°58'2 3.1
2017-Sep-19 15:30N 48°11' W 005°01'1 2.8
2017-Sep-19 15:01N 48°10' W 005°02'1 2.7
2017-Sep-19 14:30N 48°12' W 005°03'1 1.9
2017-Sep-19 14:00N 48°12' W 005°04'1 2.3
2017-Sep-19 13:30N 48°13' W 005°05'1 2.1
2017-Sep-19 13:00N 48°14' W 005°06'1 2.1
2017-Sep-19 12:30N 48°15' W 005°05'1 2.2
2017-Sep-19 12:00N 48°16' W 005°05'1 2.2
2017-Sep-19 11:30N 48°17' W 005°05'1 2.5
2017-Sep-19 11:00N 48°17' W 005°03'2 3.5
2017-Sep-19 10:30N 48°16' W 005°03'1 3.0
2017-Sep-19 10:00N 48°14' W 005°05'1 2.0
2017-Sep-19 09:30N 48°13' W 005°05'1 2.8
2017-Sep-19 09:01N 48°12' W 005°04'1 2.8
2017-Sep-19 08:30N 48°11' W 005°03'1 2.7
2017-Sep-19 08:01N 48°10' W 005°01'2 3.0
2017-Sep-19 07:30N 48°12' W 005°00'2 3.1
2017-Sep-19 07:00N 48°11' W 004°58'2 3.5
2017-Sep-19 06:31N 48°12' W 004°55'2 3.7
2017-Sep-19 06:00N 48°14' W 004°54'2 3.1
2017-Sep-19 05:30N 48°14' W 004°52'3 6.9
2017-Sep-19 05:00N 48°12' W 004°48'4 7.8
2017-Sep-19 04:31N 48°09' W 004°44'2 3.4
2017-Sep-19 04:00N 48°08' W 004°42'1 1.6
2017-Sep-19 03:31N 48°07' W 004°43'2 3.3
2017-Sep-19 03:00N 48°07' W 004°41'1 2.8
2017-Sep-19 02:30N 48°08' W 004°43'1 1.3
2017-Sep-19 02:01N 48°07' W 004°42'1 2.3
2017-Sep-19 01:30N 48°08' W 004°41'2 3.3
2017-Sep-19 01:00N 48°08' W 004°43'1 1.4
2017-Sep-19 00:30N 48°07' W 004°43'1 1.2
2017-Sep-19 00:01N 48°08' W 004°43'1 1.3
2017-Sep-18 23:30N 48°07' W 004°42'1 2.3
2017-Sep-18 23:01N 48°08' W 004°41'1 2.7
2017-Sep-18 22:30N 48°08' W 004°43'1 1.3
2017-Sep-18 22:00N 48°07' W 004°42'1 2.1
2017-Sep-18 21:30N 48°08' W 004°41'2 3.3
2017-Sep-18 21:00N 48°08' W 004°44'1 2.2
2017-Sep-18 20:30N 48°08' W 004°42'1 1.1
2017-Sep-18 20:00N 48°07' W 004°42'2 3.2
2017-Sep-18 19:31N 48°08' W 004°44'4 7.7
2017-Sep-18 19:01N 48°10' W 004°48'4 8.4
2017-Sep-18 18:31N 48°13' W 004°53'1 2.3
2017-Sep-18 18:00N 48°13' W 004°54'1 2.7
2017-Sep-18 17:30N 48°12' W 004°56'1 2.9
2017-Sep-18 17:00N 48°12' W 004°58'2 3.2
2017-Sep-18 16:31N 48°13' W 004°58'2 3.6
2017-Sep-18 16:00N 48°15' W 004°58'1 2.8
2017-Sep-18 15:30N 48°16' W 004°56'1 2.9
2017-Sep-18 15:00N 48°14' W 004°57'1 2.9
2017-Sep-18 14:31N 48°13' W 004°57'2 3.2
2017-Sep-18 14:00N 48°12' W 004°59'2 3.6
2017-Sep-18 13:30N 48°11' W 005°01'3 6.3
2017-Sep-18 13:00N 48°10' W 005°06'0 0.5
2017-Sep-18 12:30N 48°10' W 005°05'1 2.5
2017-Sep-18 12:00N 48°10' W 005°03'2 3.1
2017-Sep-18 11:30N 48°09' W 005°03'1 0.8
2017-Sep-18 10:24N 48°08' W 005°04'1 2.5
2017-Sep-18 10:00N 48°09' W 005°03'2 4.4
2017-Sep-18 09:30N 48°08' W 004°60'4 8.5
2017-Sep-18 09:00N 48°06' W 004°54'4 8.7
2017-Sep-18 08:30N 48°04' W 004°49'5 9.4
2017-Sep-18 08:00N 48°00' W 004°44'5 9.0
2017-Sep-18 07:26N 47°57' W 004°38'4 8.5
2017-Sep-18 07:00N 47°55' W 004°34'  
2017-Sep-15 07:43N 47°49' W 004°23'0 0.0
2017-Sep-14 13:58N 47°49' W 004°23'5 1.6
2017-Sep-14 10:58N 47°50' W 004°30'7 7.0
2017-Sep-14 09:58N 47°53' W 004°39'2 1.6
2017-Sep-14 08:58N 47°53' W 004°37'3 2.6
2017-Sep-14 07:58N 47°53' W 004°41'1 2.7
2017-Sep-14 07:30N 47°54' W 004°41'1 2.7
2017-Sep-14 06:58N 47°55' W 004°40'1 2.6
2017-Sep-14 06:24N 47°56' W 004°39'1 2.6
2017-Sep-14 05:59N 47°57' W 004°38'1 2.6
2017-Sep-14 05:30N 47°57' W 004°36'2 3.0
2017-Sep-14 05:00N 47°56' W 004°37'2 3.1
2017-Sep-14 04:30N 47°54' W 004°38'2 2.3
2017-Sep-14 03:51N 47°54' W 004°40'1 2.4
2017-Sep-14 03:24N 47°55' W 004°39'1 2.6
2017-Sep-14 03:00N 47°56' W 004°38'1 2.1
2017-Sep-14 02:28N 47°57' W 004°39'1 2.8
2017-Sep-14 01:58N 47°55' W 004°39'1 2.3
2017-Sep-14 01:30N 47°56' W 004°37'1 2.7
2017-Sep-14 01:00N 47°57' W 004°36'1 2.6
2017-Sep-14 00:30N 47°57' W 004°38'1 2.7
2017-Sep-14 00:00N 47°56' W 004°39'1 2.2
2017-Sep-13 23:30N 47°55' W 004°38'1 2.7
2017-Sep-13 23:00N 47°56' W 004°37'2 4.3
2017-Sep-13 22:30N 47°58' W 004°39'5 9.9
2017-Sep-13 22:00N 48°01' W 004°45'4 7.8
2017-Sep-13 21:30N 48°05' W 004°44'2 4.6
2017-Sep-13 21:00N 48°07' W 004°42'1 2.8
2017-Sep-13 20:30N 48°08' W 004°43'1 1.0
2017-Sep-13 20:00N 48°07' W 004°43'1 2.5
2017-Sep-13 19:30N 48°08' W 004°41'1 2.0
2017-Sep-13 19:00N 48°08' W 004°42'1 1.6
2017-Sep-13 18:31N 48°07' W 004°43'1 2.7
2017-Sep-13 18:00N 48°07' W 004°41'1 1.7
2017-Sep-13 17:30N 48°08' W 004°42'2 3.3
2017-Sep-13 17:00N 48°07' W 004°44'1 2.6
2017-Sep-13 16:30N 48°07' W 004°42'1 1.3
2017-Sep-13 16:00N 48°07' W 004°41'1 1.9
2017-Sep-13 15:30N 48°08' W 004°42'1 1.4
2017-Sep-13 15:00N 48°07' W 004°42'1 2.6
2017-Sep-13 14:30N 48°07' W 004°40'1 2.9
2017-Sep-13 14:01N 48°08' W 004°42'1 1.2
2017-Sep-13 13:30N 48°07' W 004°43'1 2.8
2017-Sep-13 13:00N 48°08' W 004°41'1 2.7
2017-Sep-13 12:30N 48°08' W 004°43'1 1.9
2017-Sep-13 12:00N 48°07' W 004°44'2 3.5
2017-Sep-13 11:30N 48°07' W 004°41'1 2.3
2017-Sep-13 11:00N 48°08' W 004°42'1 1.8
2017-Sep-13 10:30N 48°07' W 004°42'1 2.5
2017-Sep-13 10:00N 48°07' W 004°40'1 2.7
2017-Sep-13 09:30N 48°08' W 004°42'1 2.8
2017-Sep-13 09:00N 48°08' W 004°44'1 2.8
2017-Sep-13 08:30N 48°07' W 004°42'1 1.7
2017-Sep-13 08:00N 48°08' W 004°41'2 3.1
2017-Sep-13 07:30N 48°08' W 004°44'1 1.9
2017-Sep-13 07:01N 48°07' W 004°43'1 1.2
2017-Sep-13 06:30N 48°08' W 004°42'1 1.4
2017-Sep-13 06:01N 48°07' W 004°43'1 2.4
2017-Sep-13 05:30N 48°08' W 004°41'1 1.1
2017-Sep-13 05:00N 48°08' W 004°42'1 1.5
2017-Sep-13 04:30N 48°07' W 004°43'1 2.3
2017-Sep-13 04:00N 48°07' W 004°41'1 1.5
2017-Sep-13 03:30N 48°08' W 004°42'1 2.6
2017-Sep-13 03:00N 48°07' W 004°44'1 2.7
2017-Sep-13 02:30N 48°07' W 004°42'0 0.1
2017-Sep-13 02:00N 48°07' W 004°42'1 2.5
2017-Sep-13 01:30N 48°08' W 004°44'1 2.8
2017-Sep-13 01:00N 48°07' W 004°42'1 1.3
2017-Sep-13 00:30N 48°08' W 004°42'1 2.5
2017-Sep-13 00:00N 48°07' W 004°44'1 2.9
2017-Sep-12 23:30N 48°07' W 004°41'1 1.6
2017-Sep-12 23:00N 48°08' W 004°42'1 2.6
2017-Sep-12 22:30N 48°08' W 004°44'1 2.8
2017-Sep-12 22:00N 48°07' W 004°42'1 1.9
2017-Sep-12 21:30N 48°07' W 004°41'1 2.5
2017-Sep-12 21:00N 48°08' W 004°41'1 2.8
2017-Sep-12 20:31N 48°08' W 004°43'1 2.0
2017-Sep-12 20:00N 48°08' W 004°42'1 1.0
2017-Sep-12 19:30N 48°07' W 004°42'1 2.9
2017-Sep-12 19:00N 48°08' W 004°44'1 2.4
2017-Sep-12 18:30N 48°07' W 004°42'1 2.6
2017-Sep-12 18:00N 48°07' W 004°40'2 4.2
2017-Sep-12 17:30N 48°06' W 004°42'4 8.4
2017-Sep-12 17:01N 48°02' W 004°46'4 8.2
2017-Sep-12 16:30N 48°00' W 004°51'4 7.7
2017-Sep-12 16:00N 48°00' W 004°57'6 7.3
2017-Sep-12 15:13N 47°59' W 005°06'1 2.9
2017-Sep-12 14:58N 47°59' W 005°06'0 0.3
2017-Sep-12 14:30N 47°59' W 005°06'1 2.4
2017-Sep-12 14:00N 47°60' W 005°05'1 2.6
2017-Sep-12 13:30N 47°59' W 005°06'1 2.7
2017-Sep-12 13:00N 47°58' W 005°08'1 2.6
2017-Sep-12 12:30N 47°59' W 005°07'2 3.2
2017-Sep-12 12:00N 48°00' W 005°05'1 1.6
2017-Sep-12 11:30N 47°60' W 005°05'1 2.0
2017-Sep-12 10:59N 47°59' W 005°06'1 1.6
2017-Sep-12 10:17N 47°59' W 005°08'4 4.4
2017-Sep-12 09:19N 47°57' W 005°02'2 7.2
2017-Sep-12 09:00N 47°56' W 004°59'4 7.2
2017-Sep-12 08:30N 47°55' W 004°54'4 7.3
2017-Sep-12 08:00N 47°54' W 004°49'4 7.5
2017-Sep-12 07:30N 47°53' W 004°43'  

Dump ship's entire track history